Latest Weather Observations for Sydney Airport

IDN60801

Issued at 6:52 am EDT Monday 18 November 2019 (issued every 10 minutes, with the page automatically refreshed every 10 minutes)

About weather observations | Map of weather stations | Latest weather observations for NSW | Other Formats
Station Details ID: 066037 Name: SYDNEY AIRPORT AMO Lat: -33.95 Lon: 151.17 Height: 6.0 m
Data from the previous 72 hours. | See also: Recent months at Sydney Airport
Date/Time
EDT
Temp
°C
App
Temp
°C
Dew
Point
°C
Rel
Hum
%
Delta-T
°C
Wind Press
QNH
hPa
Press
MSL
hPa
Rain since
9am
mm
Dir  Spd
km/h
Gust
km/h
Spd
kts
Gust
kts
18/06:30am 18.2 17.6 12.4 69 3.2 NW 7 13 4 7 1018.9 1018.9 0.0
18/06:00am 18.0 18.6 12.0 68 3.3 CALM 0 0 0 0 1018.7 1018.7 0.0
18/05:30am 17.9 18.5 11.9 68 3.3 CALM 0 0 0 0 1018.7 1018.7 0.0
18/05:00am 16.9 17.5 11.8 72 2.8 CALM 0 0 0 0 1018.6 1018.6 0.0
18/04:30am 16.3 16.6 11.0 71 2.8 CALM 0 0 0 0 1018.5 1018.5 0.0
18/04:00am 16.2 15.7 10.7 70 2.9 E 4 7 2 4 1018.7 1018.7 0.0
18/03:30am 17.0 16.1 11.3 69 3.1 E 7 9 4 5 1019.0 1019.0 0.0
18/03:00am 17.0 15.4 11.5 70 3.0 ENE 11 13 6 7 1019.0 1019.0 0.0
18/02:30am 17.2 15.2 11.5 69 3.1 ESE 13 15 7 8 1019.4 1019.4 0.0
18/02:00am 17.2 15.6 11.5 69 3.1 E 11 15 6 8 1019.8 1019.8 0.0
18/01:30am 17.0 15.4 11.5 70 3.0 ESE 11 13 6 7 1020.2 1020.2 0.0
18/01:00am 16.9 14.9 11.4 70 3.0 ESE 13 17 7 9 1020.3 1020.3 0.0
18/12:30am 17.6 14.8 11.4 67 3.4 ESE 17 24 9 13 1020.6 1020.6 0.0
18/12:00am 17.8 15.3 11.1 65 3.6 ESE 15 19 8 10 1020.9 1020.9 0.0
 
Date/Time
EDT
Temp
°C
App
Temp
°C
Dew
Point
°C
Rel
Hum
%
Delta-T
°C
Wind Press
QNH
hPa
Press
MSL
hPa
Rain since
9am
mm
Dir  Spd
km/h
Gust
km/h
Spd
kts
Gust
kts
17/11:30pm 17.9 15.9 11.5 66 3.5 ESE 13 19 7 10 1020.9 1020.9 0.0
17/11:00pm 17.7 14.9 11.3 66 3.5 SE 17 24 9 13 1020.9 1020.9 0.0
17/10:30pm 18.2 15.0 11.3 64 3.8 SE 19 22 10 12 1020.9 1020.9 0.0
17/10:00pm 18.0 14.8 11.3 65 3.6 ESE 19 24 10 13 1021.0 1021.0 0.0
17/09:30pm 17.9 14.5 11.2 65 3.6 SE 20 26 11 14 1020.9 1020.9 0.0
17/09:00pm 17.9 14.2 11.5 66 3.5 SE 22 28 12 15 1020.4 1020.4 0.0
17/08:30pm 17.9 13.7 11.2 65 3.6 SE 24 32 13 17 1020.1 1020.1 0.0
17/08:00pm 17.7 13.7 11.7 68 3.3 SE 24 32 13 17 1019.5 1019.5 0.0
17/07:30pm 18.0 13.6 11.6 66 3.5 SE 26 32 14 17 1019.0 1019.0 0.0
17/07:00pm 18.2 13.8 11.7 66 3.6 SE 26 33 14 18 1018.8 1018.8 0.0
17/06:30pm 18.6 14.0 12.4 67 3.5 SE 28 33 15 18 1018.4 1018.4 0.0
17/06:00pm 18.4 13.4 12.2 67 3.4 SE 30 35 16 19 1017.8 1017.8 0.0
17/05:30pm 18.7 13.6 12.0 65 3.7 SE 30 37 16 20 1017.5 1017.5 0.0
17/05:00pm 19.2 14.0 12.7 66 3.6 SE 32 39 17 21 1017.2 1017.2 0.0
17/04:30pm 19.1 13.8 12.6 66 3.6 SE 32 37 17 20 1016.7 1016.7 0.0
17/04:00pm 19.5 14.6 12.5 64 3.9 SE 30 37 16 20 1016.2 1016.2 0.0
17/03:30pm 19.5 13.7 12.8 65 3.8 SE 35 43 19 23 1016.1 1016.1 0.0
17/03:00pm 20.4 15.5 13.6 65 3.9 SE 32 41 17 22 1016.2 1016.2 0.0
17/02:30pm 20.2 14.3 12.4 61 4.4 SE 35 41 19 22 1016.1 1016.1 0.0
17/02:00pm 19.9 14.1 12.7 63 4.1 SE 35 43 19 23 1016.1 1016.1 0.0
17/01:30pm 20.6 15.4 13.3 63 4.2 SE 33 41 18 22 1016.0 1016.0 0.0
17/01:00pm 20.3 15.1 13.3 64 4.0 SE 33 41 18 22 1016.1 1016.1 0.0
17/12:30pm 19.9 14.9 14.0 69 3.4 SE 33 41 18 22 1016.1 1016.1 0.0
17/12:00pm 21.0 16.1 14.4 66 3.8 SE 33 39 18 21 1015.9 1015.9 0.0
17/11:30am 20.9 16.3 14.5 67 3.7 SSE 32 41 17 22 1015.7 1015.7 0.0
17/11:00am 20.6 15.5 14.7 69 3.5 SE 35 41 19 22 1015.7 1015.7 0.0
17/10:30am 20.9 16.4 15.0 69 3.5 SSE 32 39 17 21 1015.5 1015.5 0.0
17/10:00am 20.1 16.1 15.3 74 2.8 SSE 30 37 16 20 1015.5 1015.5 0.0
17/09:30am 20.0 18.2 15.4 75 2.7 SSE 19 28 10 15 1015.4 1015.4 0.0
17/09:00am 19.2 17.6 16.1 82 1.8 S 19 22 10 12 1015.1 1015.1 0.0
17/08:30am 18.9 16.8 16.3 85 1.6 S 22 32 12 17 1015.0 1015.0 0.0
17/08:00am 18.6 17.3 15.8 84 1.7 SSW 17 22 9 12 1014.9 1014.9 0.0
17/07:30am 18.2 16.3 15.8 86 1.4 SSW 20 26 11 14 1014.6 1014.6 0.0
17/07:00am 18.1 17.2 15.9 87 1.3 SSW 15 19 8 10 1014.6 1014.6 0.0
17/06:30am 17.9 16.6 15.7 87 1.3 SSW 17 20 9 11 1014.6 1014.6 0.0
17/06:00am 17.7 16.3 15.5 87 1.3 SSW 17 22 9 12 1014.5 1014.5 0.0
17/05:30am 18.0 16.1 15.8 87 1.3 SSW 20 26 11 14 1014.5 1014.5 0.0
17/05:00am 18.4 17.5 15.8 85 1.5 S 15 19 8 10 1014.3 1014.3 0.0
17/04:30am 18.4 17.7 15.5 83 1.7 S 13 15 7 8 1014.6 1014.6 0.0
17/04:00am 18.5 18.3 15.6 83 1.7 S 11 15 6 8 1014.6 1014.6 0.0
17/03:30am 18.5 20.1 14.8 79 2.1 CALM 0 0 0 0 1014.8 1014.8 0.0
17/03:00am 18.7 19.9 14.8 78 2.3 SSW 2 9 1 5 1015.5 1015.5 0.0
17/02:30am 18.7 20.1 14.4 76 2.5 CALM 0 0 0 0 1015.4 1015.4 0.0
17/02:00am 18.9 20.4 14.6 76 2.5 CALM 0 0 0 0 1015.5 1015.5 0.0
17/01:30am 19.2 18.1 14.2 73 2.9 NE 13 15 7 8 1015.2 1015.2 0.0
17/01:00am 18.9 17.8 14.2 74 2.7 NE 13 17 7 9 1015.7 1015.7 0.0
17/12:30am 19.2 18.4 14.0 72 3.0 ENE 11 13 6 7 1016.2 1016.2 0.0
17/12:00am 19.3 18.9 14.1 72 3.0 NE 9 13 5 7 1016.9 1016.9 0.0
 
Date/Time
EDT
Temp
°C
App
Temp
°C
Dew
Point
°C
Rel
Hum
%
Delta-T
°C
Wind Press
QNH
hPa
Press
MSL
hPa
Rain since
9am
mm
Dir  Spd
km/h
Gust
km/h
Spd
kts
Gust
kts
16/11:30pm 19.4 20.0 14.2 72 3.0 NE 4 9 2 5 1017.1 1017.1 0.0
16/11:00pm 19.2 18.8 14.0 72 3.0 E 9 11 5 6 1016.9 1016.9 0.0
16/10:30pm 19.0 18.3 14.3 74 2.7 ENE 11 15 6 8 1016.8 1016.8 0.0
16/10:00pm 19.6 18.3 13.8 69 3.3 E 13 19 7 10 1016.8 1016.8 0.0
16/09:30pm 19.4 17.6 13.3 68 3.5 E 15 17 8 9 1016.6 1016.6 0.0
16/09:00pm 19.5 17.3 13.4 68 3.5 E 17 19 9 10 1016.3 1016.3 0.0
16/08:30pm 19.5 17.7 13.4 68 3.5 E 15 20 8 11 1015.9 1015.9 0.0
16/08:00pm 19.2 17.7 13.2 68 3.4 E 13 17 7 9 1015.7 1015.7 0.0
16/07:30pm 19.2 17.3 12.9 67 3.5 E 15 19 8 10 1015.2 1015.2 0.0
16/07:00pm 19.5 17.2 13.0 66 3.7 E 17 22 9 12 1014.8 1014.8 0.0
16/06:30pm 19.8 16.6 13.0 65 3.8 E 22 30 12 16 1014.5 1014.5 0.0
16/06:00pm 20.2 17.1 13.4 65 3.9 ENE 22 30 12 16 1014.2 1014.2 0.0
16/05:30pm 20.4 17.2 13.1 63 4.2 E 22 32 12 17 1014.2 1014.2 0.0
16/05:00pm 20.3 16.9 12.5 61 4.4 E 22 30 12 16 1014.2 1014.2 0.0
16/04:30pm 20.1 16.6 12.1 60 4.5 E 22 32 12 17 1014.2 1014.2 0.0
16/04:00pm 20.8 17.4 12.5 59 4.7 E 22 32 12 17 1014.3 1014.3 0.0
16/03:30pm 20.4 16.4 11.9 58 4.7 ESE 24 30 13 16 1014.6 1014.6 0.0
16/03:00pm 21.5 17.6 12.1 55 5.3 ESE 24 35 13 19 1014.7 1014.7 0.0
16/02:30pm 21.1 17.2 12.0 56 5.1 E 24 33 13 18 1015.2 1015.2 0.0
16/02:00pm 20.5 16.3 12.5 60 4.5 ESE 26 33 14 18 1015.4 1015.4 0.0
16/01:30pm 20.1 16.6 12.3 61 4.4 ESE 22 30 12 16 1015.9 1015.9 0.0
16/01:00pm 21.1 18.0 12.3 57 4.9 SE 20 30 11 16 1015.9 1015.9 0.0
16/12:30pm 21.2 18.1 12.1 56 5.1 SE 20 28 11 15 1016.2 1016.2 0.0
16/12:00pm 20.4 17.2 11.9 58 4.7 SE 20 26 11 14 1016.4 1016.4 0.0
16/11:30am 20.7 17.3 12.4 59 4.7 SE 22 28 12 15 1016.6 1016.6 0.0
16/11:00am 20.5 17.2 12.7 61 4.4 SE 22 30 12 16 1016.8 1016.8 0.0
16/10:30am 20.1 16.7 13.6 66 3.7 SE 24 30 13 16 1016.7 1016.7 0.0
16/10:00am 18.6 16.6 14.9 79 2.2 SE 19 26 10 14 1016.6 1016.6 0.0
16/09:30am 18.1 15.7 14.4 79 2.1 SSE 20 30 11 16 1016.4 1016.4 0.0
16/09:00am 20.2 18.6 12.9 63 4.1 ESE 13 19 7 10 1016.3 1016.3 0.0
16/08:30am 19.5 16.3 13.0 66 3.7 SE 22 30 12 16 1016.2 1016.2 0.0
16/08:00am 18.9 14.7 13.5 71 3.1 SE 28 32 15 17 1015.7 1015.7 0.0
16/07:30am 19.2 17.6 12.9 67 3.5 SSE 13 20 7 11 1015.3 1015.3 0.0
16/07:00am 19.5 17.4 13.7 69 3.3 SE 17 26 9 14 1014.8 1014.8 0.0
16/06:30am 18.2 16.1 13.5 74 2.7 SE 17 24 9 13 1014.5 1014.5 0.0
16/06:00am 17.8 15.7 13.7 77 2.3 SSE 17 22 9 12 1014.1 1014.1 0.0
16/05:30am 17.7 15.0 13.4 76 2.4 SE 20 28 11 15 1013.6 1013.6 0.0
16/05:00am 17.9 14.9 13.6 76 2.4 SSE 22 30 12 16 1013.1 1013.1 0.0
16/04:30am 18.0 15.0 13.7 76 2.4 SSE 22 33 12 18 1012.9 1012.9 0.0
16/04:00am 18.3 14.5 14.8 80 2.0 SSE 28 37 15 20 1012.8 1012.8 0.0
16/03:30am 17.9 13.4 15.0 83 1.7 S 32 39 17 21 1012.7 1012.7 0.0
16/03:00am 18.2 13.6 14.5 79 2.1 S 32 39 17 21 1012.6 1012.6 0.0
16/02:30am 18.4 13.3 14.9 80 2.0 S 35 41 19 22 1012.7 1012.7 0.0
16/02:00am 18.3 12.9 15.0 81 1.9 S 37 48 20 26 1012.6 1012.6 0.0
16/01:30am 18.5 13.9 15.2 81 1.9 S 33 46 18 25 1012.5 1012.5 0.0
16/01:00am 18.3 13.1 15.6 84 1.6 S 37 48 20 26 1012.4 1012.4 0.0
16/12:30am 18.3 13.2 15.7 85 1.5 S 37 50 20 27 1012.2 1012.2 0.0
16/12:00am 18.3 11.8 15.7 85 1.5 S 44 59 24 32 1011.6 1011.6 0.0
 
Date/Time
EDT
Temp
°C
App
Temp
°C
Dew
Point
°C
Rel
Hum
%
Delta-T
°C
Wind Press
QNH
hPa
Press
MSL
hPa
Rain since
9am
mm
Dir  Spd
km/h
Gust
km/h
Spd
kts
Gust
kts
15/11:30pm 18.4 11.5 15.5 83 1.7 S 46 61 25 33 1011.3 1011.3 0.0
15/11:00pm 18.7 13.9 15.6 82 1.8 S 35 50 19 27 1011.1 1011.1 0.0
15/10:30pm 18.8 12.6 16.0 84 1.7 S 43 54 23 29 1010.5 1010.5 0.0
15/10:04pm 19.4 11.7 15.5 78 2.3 S 50 69 27 37 1010.1 1010.1 0.0
15/10:00pm 19.9 13.5 14.3 70 3.3 S 41 61 22 33 1009.9 1009.9 0.0
15/09:54pm 27.5 21.3 -0.5 16 13.0 SW 22 46 12 25 1009.6 1009.6 0.0
15/09:30pm 27.6 21.6 -3.3 13 13.7 W 19 24 10 13 1008.9 1008.9 0.0
15/09:00pm 28.4 24.4 -2.6 13 14.0 WSW 9 17 5 9 1008.3 1008.3 0.0
15/08:30pm 29.3 24.3 -4.2 11 14.8 SSW 13 17 7 9 1007.7 1007.7 0.0
15/08:00pm 30.5 24.1 -4.5 10 15.5 W 20 28 11 15 1007.1 1007.1 0.0
15/07:30pm 31.0 22.3 -5.5 9 16.0 WNW 32 43 17 23 1006.6 1006.6 0.0
15/07:00pm 31.5 25.6 -5.2 9 16.2 WSW 17 26 9 14 1006.1 1006.1 0.0
15/06:30pm 32.3 29.4 -4.6 9 16.6 SE 2 9 1 5 1005.4 1005.4 0.0
15/06:00pm 32.7 27.9 -5.8 8 17.0 WSW 11 19 6 10 1004.9 1004.9 0.0
15/05:30pm 30.8 24.8 1.2 15 14.5 NE 22 33 12 18 1004.7 1004.7 0.0
15/05:00pm 29.1 21.9 5.2 22 12.4 NE 32 35 17 19 1004.6 1004.6 0.0
15/04:30pm 30.1 22.7 4.0 19 13.4 NE 32 39 17 21 1004.6 1004.6 0.0
15/04:00pm 28.5 20.6 4.1 21 12.4 NE 35 41 19 22 1004.8 1004.8 0.0
15/03:30pm 28.6 21.2 4.8 22 12.2 NNE 33 41 18 22 1004.9 1004.9 0.0
15/03:00pm 31.3 25.3 3.4 17 14.3 NE 24 35 13 19 1005.1 1005.1 0.0
15/02:30pm 33.3 27.4 -1.1 11 16.5 WNW 20 32 11 17 1005.4 1005.4 0.0
15/02:00pm 32.0 26.2 0.2 13 15.5 WNW 20 33 11 18 1006.0 1006.0 0.0
15/01:30pm 31.4 27.1 0.7 14 15.0 NW 13 22 7 12 1006.7 1006.7 0.0
15/01:00pm 30.3 24.8 1.7 16 14.1 NW 20 32 11 17 1007.4 1007.4 0.0
15/12:30pm 29.7 24.0 0.3 15 14.1 NW 20 32 11 17 1008.0 1008.0 0.0
15/12:00pm 29.2 24.6 1.7 17 13.5 WNW 15 24 8 13 1008.8 1008.8 0.0
15/11:30am 28.3 22.9 2.5 19 12.7 WNW 20 32 11 17 1009.4 1009.4 0.0
15/11:00am 28.0 23.1 2.2 19 12.6 W 17 28 9 15 1009.9 1009.9 0.0
15/10:30am 26.3 22.0 3.5 23 11.3 NW 15 24 8 13 1010.1 1010.1 0.0
15/10:00am 26.0 22.1 3.3 23 11.2 NW 13 20 7 11 1010.2 1010.2 0.0
15/09:30am 25.2 20.6 3.8 25 10.6 NW 17 28 9 15 1010.3 1010.3 0.0
15/09:00am 25.0 20.9 4.2 26 10.3 NW 15 24 8 13 1010.4 1010.4 0.0
15/08:30am 23.9 20.1 5.8 31 9.2 NNW 15 19 8 10 1010.5 1010.5 0.0
15/08:00am 22.6 19.4 6.8 36 8.1 NNW 13 19 7 10 1010.6 1010.6 0.0
15/07:30am 20.9 18.5 7.2 41 7.0 NW 9 13 5 7 1010.6 1010.6 0.0
15/07:00am 19.7 17.4 7.4 45 6.3 NW 9 15 5 8 1010.5 1010.5 0.0

Other formats

Comma delimited format used in spreadsheet applications
http://www.bom.gov.au/fwo/IDN60801/IDN60801.94767.axf

JavaScript Object Notation format (JSON) in row-major order
http://www.bom.gov.au/fwo/IDN60801/IDN60801.94767.json

Data quality

Most of these data are generated automatically and are frequently updated. Quality checks on data are not normally performed. It is possible for incorrect values to appear. Refer to information at About Latest Weather Observations and please check the disclaimer before using these data.